sensor_id;sensor_type;location;lat;lon;timestamp;temperature;humidity
71128;SHT30;59249;59.736;30.568;2022-08-03T00:00:38;15.53;87.68
71128;SHT30;59249;59.736;30.568;2022-08-03T00:03:09;15.52;87.94
71128;SHT30;59249;59.736;30.568;2022-08-03T00:05:37;15.53;87.85
71128;SHT30;59249;59.736;30.568;2022-08-03T00:08:26;15.53;87.80
71128;SHT30;59249;59.736;30.568;2022-08-03T00:10:55;15.50;88.02
71128;SHT30;59249;59.736;30.568;2022-08-03T00:13:24;15.47;87.96
71128;SHT30;59249;59.736;30.568;2022-08-03T00:15:54;15.50;88.21
71128;SHT30;59249;59.736;30.568;2022-08-03T00:18:24;15.49;88.31
71128;SHT30;59249;59.736;30.568;2022-08-03T00:20:53;15.51;88.31
71128;SHT30;59249;59.736;30.568;2022-08-03T00:23:22;15.49;88.15
71128;SHT30;59249;59.736;30.568;2022-08-03T00:25:51;15.46;88.37
71128;SHT30;59249;59.736;30.568;2022-08-03T00:28:20;15.46;88.16
71128;SHT30;59249;59.736;30.568;2022-08-03T00:30:55;15.44;88.18
71128;SHT30;59249;59.736;30.568;2022-08-03T00:33:25;15.40;88.21
71128;SHT30;59249;59.736;30.568;2022-08-03T00:36:14;15.42;88.19
71128;SHT30;59249;59.736;30.568;2022-08-03T00:38:48;15.37;88.13
71128;SHT30;59249;59.736;30.568;2022-08-03T00:41:17;15.37;88.49
71128;SHT30;59249;59.736;30.568;2022-08-03T00:43:47;15.39;88.42
71128;SHT30;59249;59.736;30.568;2022-08-03T00:46:15;15.37;88.62
71128;SHT30;59249;59.736;30.568;2022-08-03T00:48:50;15.38;88.31
71128;SHT30;59249;59.736;30.568;2022-08-03T00:51:21;15.36;88.19
71128;SHT30;59249;59.736;30.568;2022-08-03T00:53:50;15.36;88.36
71128;SHT30;59249;59.736;30.568;2022-08-03T00:56:19;15.35;88.97
71128;SHT30;59249;59.736;30.568;2022-08-03T00:58:48;15.32;88.69
71128;SHT30;59249;59.736;30.568;2022-08-03T01:01:20;15.35;88.61
71128;SHT30;59249;59.736;30.568;2022-08-03T01:03:51;15.32;88.35
71128;SHT30;59249;59.736;30.568;2022-08-03T01:06:33;15.26;88.34
71128;SHT30;59249;59.736;30.568;2022-08-03T01:09:12;15.25;88.47
71128;SHT30;59249;59.736;30.568;2022-08-03T01:11:53;15.21;88.49
71128;SHT30;59249;59.736;30.568;2022-08-03T01:14:38;15.23;88.59
71128;SHT30;59249;59.736;30.568;2022-08-03T01:17:14;15.16;88.81
71128;SHT30;59249;59.736;30.568;2022-08-03T01:19:56;15.14;89.03
71128;SHT30;59249;59.736;30.568;2022-08-03T01:23:02;15.16;88.72
71128;SHT30;59249;59.736;30.568;2022-08-03T01:25:53;15.12;88.81
71128;SHT30;59249;59.736;30.568;2022-08-03T01:28:42;15.09;88.71
71128;SHT30;59249;59.736;30.568;2022-08-03T01:31:26;15.08;88.81
71128;SHT30;59249;59.736;30.568;2022-08-03T01:34:01;15.02;89.35
71128;SHT30;59249;59.736;30.568;2022-08-03T01:36:41;15.04;89.54
71128;SHT30;59249;59.736;30.568;2022-08-03T01:39:11;15.04;88.97
71128;SHT30;59249;59.736;30.568;2022-08-03T01:41:48;15.03;89.21
71128;SHT30;59249;59.736;30.568;2022-08-03T01:44:21;15.02;89.16
71128;SHT30;59249;59.736;30.568;2022-08-03T01:47:00;15.04;89.09
71128;SHT30;59249;59.736;30.568;2022-08-03T01:49:34;15.09;89.07
71128;SHT30;59249;59.736;30.568;2022-08-03T01:52:06;15.11;89.21
71128;SHT30;59249;59.736;30.568;2022-08-03T01:54:42;15.08;89.30
71128;SHT30;59249;59.736;30.568;2022-08-03T01:57:13;15.08;88.94
71128;SHT30;59249;59.736;30.568;2022-08-03T01:59:44;15.10;88.70
71128;SHT30;59249;59.736;30.568;2022-08-03T02:02:18;15.02;88.98
71128;SHT30;59249;59.736;30.568;2022-08-03T02:05:05;15.02;89.30
71128;SHT30;59249;59.736;30.568;2022-08-03T02:07:40;15.01;88.86
71128;SHT30;59249;59.736;30.568;2022-08-03T02:10:13;15.00;88.81
71128;SHT30;59249;59.736;30.568;2022-08-03T02:13:05;15.04;88.80
71128;SHT30;59249;59.736;30.568;2022-08-03T02:15:36;15.03;88.85
71128;SHT30;59249;59.736;30.568;2022-08-03T02:18:11;15.03;89.27
71128;SHT30;59249;59.736;30.568;2022-08-03T02:20:42;15.02;88.88
71128;SHT30;59249;59.736;30.568;2022-08-03T02:23:13;15.08;89.05
71128;SHT30;59249;59.736;30.568;2022-08-03T02:25:47;15.32;89.25
71128;SHT30;59249;59.736;30.568;2022-08-03T02:28:20;15.61;88.68
71128;SHT30;59249;59.736;30.568;2022-08-03T02:30:54;15.91;88.13
71128;SHT30;59249;59.736;30.568;2022-08-03T02:33:31;16.21;87.30
71128;SHT30;59249;59.736;30.568;2022-08-03T02:36:03;16.46;86.34
71128;SHT30;59249;59.736;30.568;2022-08-03T02:38:35;16.76;85.49
71128;SHT30;59249;59.736;30.568;2022-08-03T02:41:12;17.07;85.29
71128;SHT30;59249;59.736;30.568;2022-08-03T02:43:47;17.27;84.40
71128;SHT30;59249;59.736;30.568;2022-08-03T02:46:37;17.55;84.13
71128;SHT30;59249;59.736;30.568;2022-08-03T02:49:11;17.61;83.41
71128;SHT30;59249;59.736;30.568;2022-08-03T02:52:02;17.79;82.62
71128;SHT30;59249;59.736;30.568;2022-08-03T02:54:33;17.83;82.19
71128;SHT30;59249;59.736;30.568;2022-08-03T02:57:06;18.00;81.88
71128;SHT30;59249;59.736;30.568;2022-08-03T02:59:37;18.17;81.94
71128;SHT30;59249;59.736;30.568;2022-08-03T03:02:09;18.32;81.36
71128;SHT30;59249;59.736;30.568;2022-08-03T03:04:41;18.56;80.99
71128;SHT30;59249;59.736;30.568;2022-08-03T03:07:35;18.75;80.54
71128;SHT30;59249;59.736;30.568;2022-08-03T03:10:20;18.87;80.37
71128;SHT30;59249;59.736;30.568;2022-08-03T03:12:52;18.90;80.01
71128;SHT30;59249;59.736;30.568;2022-08-03T03:15:26;18.98;79.74
71128;SHT30;59249;59.736;30.568;2022-08-03T03:17:56;19.10;79.64
71128;SHT30;59249;59.736;30.568;2022-08-03T03:20:29;19.18;79.00
71128;SHT30;59249;59.736;30.568;2022-08-03T03:23:01;19.14;78.58
71128;SHT30;59249;59.736;30.568;2022-08-03T03:25:31;18.99;79.14
71128;SHT30;59249;59.736;30.568;2022-08-03T03:28:01;18.81;79.11
71128;SHT30;59249;59.736;30.568;2022-08-03T03:30:33;18.60;79.34
71128;SHT30;59249;59.736;30.568;2022-08-03T03:33:02;18.30;79.87
71128;SHT30;59249;59.736;30.568;2022-08-03T03:35:32;18.14;80.39
71128;SHT30;59249;59.736;30.568;2022-08-03T03:38:05;18.01;80.82
71128;SHT30;59249;59.736;30.568;2022-08-03T03:40:34;17.79;81.34
71128;SHT30;59249;59.736;30.568;2022-08-03T03:43:07;17.62;82.31
71128;SHT30;59249;59.736;30.568;2022-08-03T03:45:37;17.55;82.56
71128;SHT30;59249;59.736;30.568;2022-08-03T03:48:10;17.47;82.89
71128;SHT30;59249;59.736;30.568;2022-08-03T03:50:42;17.45;82.99
71128;SHT30;59249;59.736;30.568;2022-08-03T03:53:17;17.39;83.21
71128;SHT30;59249;59.736;30.568;2022-08-03T03:55:46;17.35;83.44
71128;SHT30;59249;59.736;30.568;2022-08-03T03:58:31;17.38;83.51
71128;SHT30;59249;59.736;30.568;2022-08-03T04:01:00;17.37;83.59
71128;SHT30;59249;59.736;30.568;2022-08-03T04:03:29;17.41;83.61
71128;SHT30;59249;59.736;30.568;2022-08-03T04:05:59;17.42;83.98
71128;SHT30;59249;59.736;30.568;2022-08-03T04:08:45;17.45;83.84
71128;SHT30;59249;59.736;30.568;2022-08-03T04:11:46;17.45;83.94
71128;SHT30;59249;59.736;30.568;2022-08-03T04:14:22;17.50;83.84
71128;SHT30;59249;59.736;30.568;2022-08-03T04:16:58;17.53;83.99
71128;SHT30;59249;59.736;30.568;2022-08-03T04:19:34;17.57;84.13
71128;SHT30;59249;59.736;30.568;2022-08-03T04:22:10;17.66;84.04
71128;SHT30;59249;59.736;30.568;2022-08-03T04:24:45;17.75;83.68
71128;SHT30;59249;59.736;30.568;2022-08-03T04:27:20;17.93;83.64
71128;SHT30;59249;59.736;30.568;2022-08-03T04:29:53;18.07;83.16
71128;SHT30;59249;59.736;30.568;2022-08-03T04:32:24;18.23;83.04
71128;SHT30;59249;59.736;30.568;2022-08-03T04:34:55;18.38;82.78
71128;SHT30;59249;59.736;30.568;2022-08-03T04:37:37;18.46;82.59
71128;SHT30;59249;59.736;30.568;2022-08-03T04:40:12;18.54;82.45
71128;SHT30;59249;59.736;30.568;2022-08-03T04:42:42;18.63;82.60
71128;SHT30;59249;59.736;30.568;2022-08-03T04:45:12;18.61;82.57
71128;SHT30;59249;59.736;30.568;2022-08-03T04:47:43;18.68;82.60
71128;SHT30;59249;59.736;30.568;2022-08-03T04:50:12;18.77;82.40
71128;SHT30;59249;59.736;30.568;2022-08-03T04:53:06;18.88;82.33
71128;SHT30;59249;59.736;30.568;2022-08-03T04:55:35;18.88;82.30
71128;SHT30;59249;59.736;30.568;2022-08-03T04:58:04;19.03;82.34
71128;SHT30;59249;59.736;30.568;2022-08-03T05:00:34;19.12;81.81
71128;SHT30;59249;59.736;30.568;2022-08-03T05:03:03;19.09;81.65
71128;SHT30;59249;59.736;30.568;2022-08-03T05:05:51;19.05;81.64
71128;SHT30;59249;59.736;30.568;2022-08-03T05:08:45;19.14;81.63
71128;SHT30;59249;59.736;30.568;2022-08-03T05:11:17;19.23;81.48
71128;SHT30;59249;59.736;30.568;2022-08-03T05:13:47;19.28;81.02
71128;SHT30;59249;59.736;30.568;2022-08-03T05:16:16;19.30;80.94
71128;SHT30;59249;59.736;30.568;2022-08-03T05:18:45;19.42;80.99
71128;SHT30;59249;59.736;30.568;2022-08-03T05:21:14;19.57;80.57
71128;SHT30;59249;59.736;30.568;2022-08-03T05:23:47;19.55;80.64
71128;SHT30;59249;59.736;30.568;2022-08-03T05:26:16;19.51;80.86
71128;SHT30;59249;59.736;30.568;2022-08-03T05:28:45;19.58;80.72
71128;SHT30;59249;59.736;30.568;2022-08-03T05:31:19;19.62;80.82
71128;SHT30;59249;59.736;30.568;2022-08-03T05:33:49;19.70;80.64
71128;SHT30;59249;59.736;30.568;2022-08-03T05:36:18;19.75;80.62
71128;SHT30;59249;59.736;30.568;2022-08-03T05:38:48;19.85;80.45
71128;SHT30;59249;59.736;30.568;2022-08-03T05:41:19;19.93;80.46
71128;SHT30;59249;59.736;30.568;2022-08-03T05:44:03;19.94;80.21
71128;SHT30;59249;59.736;30.568;2022-08-03T05:46:35;20.08;80.08
71128;SHT30;59249;59.736;30.568;2022-08-03T05:49:04;20.23;79.82
71128;SHT30;59249;59.736;30.568;2022-08-03T05:51:33;20.28;79.42
71128;SHT30;59249;59.736;30.568;2022-08-03T05:54:04;20.28;79.39
71128;SHT30;59249;59.736;30.568;2022-08-03T05:56:33;20.30;79.22
71128;SHT30;59249;59.736;30.568;2022-08-03T05:59:04;20.37;79.14
71128;SHT30;59249;59.736;30.568;2022-08-03T06:01:53;20.52;78.86
71128;SHT30;59249;59.736;30.568;2022-08-03T06:04:22;20.64;78.69
71128;SHT30;59249;59.736;30.568;2022-08-03T06:06:50;20.70;78.49
71128;SHT30;59249;59.736;30.568;2022-08-03T06:09:21;20.84;78.14
71128;SHT30;59249;59.736;30.568;2022-08-03T06:12:09;21.03;77.11
71128;SHT30;59249;59.736;30.568;2022-08-03T06:14:40;21.27;76.10
71128;SHT30;59249;59.736;30.568;2022-08-03T06:17:09;21.45;76.08
71128;SHT30;59249;59.736;30.568;2022-08-03T06:19:38;21.63;75.74
71128;SHT30;59249;59.736;30.568;2022-08-03T06:22:07;21.85;75.14
71128;SHT30;59249;59.736;30.568;2022-08-03T06:24:38;21.91;74.78
71128;SHT30;59249;59.736;30.568;2022-08-03T06:27:19;21.99;74.31
71128;SHT30;59249;59.736;30.568;2022-08-03T06:30:05;21.91;73.99
71128;SHT30;59249;59.736;30.568;2022-08-03T06:32:37;21.89;74.04
71128;SHT30;59249;59.736;30.568;2022-08-03T06:35:12;21.93;73.99
71128;SHT30;59249;59.736;30.568;2022-08-03T06:37:43;21.90;74.10
71128;SHT30;59249;59.736;30.568;2022-08-03T06:40:16;22.02;73.87
71128;SHT30;59249;59.736;30.568;2022-08-03T06:42:50;22.01;72.64
71128;SHT30;59249;59.736;30.568;2022-08-03T06:45:20;21.87;71.37
71128;SHT30;59249;59.736;30.568;2022-08-03T06:47:59;21.80;72.05
71128;SHT30;59249;59.736;30.568;2022-08-03T06:50:29;21.87;72.03
71128;SHT30;59249;59.736;30.568;2022-08-03T06:52:59;21.86;70.83
71128;SHT30;59249;59.736;30.568;2022-08-03T06:55:30;21.94;71.24
71128;SHT30;59249;59.736;30.568;2022-08-03T06:58:02;22.01;71.05
71128;SHT30;59249;59.736;30.568;2022-08-03T07:00:31;22.15;71.00
71128;SHT30;59249;59.736;30.568;2022-08-03T07:03:00;22.24;69.69
71128;SHT30;59249;59.736;30.568;2022-08-03T07:05:29;22.35;69.39
71128;SHT30;59249;59.736;30.568;2022-08-03T07:07:59;22.43;69.00
71128;SHT30;59249;59.736;30.568;2022-08-03T07:10:31;22.45;68.36
71128;SHT30;59249;59.736;30.568;2022-08-03T07:13:00;22.50;67.81
71128;SHT30;59249;59.736;30.568;2022-08-03T07:15:29;22.64;67.65
71128;SHT30;59249;59.736;30.568;2022-08-03T07:18:18;22.73;68.09
71128;SHT30;59249;59.736;30.568;2022-08-03T07:20:56;22.90;67.25
71128;SHT30;59249;59.736;30.568;2022-08-03T07:23:25;22.87;67.67
71128;SHT30;59249;59.736;30.568;2022-08-03T07:25:56;22.99;67.75
71128;SHT30;59249;59.736;30.568;2022-08-03T07:28:25;23.08;66.37
71128;SHT30;59249;59.736;30.568;2022-08-03T07:30:56;23.05;64.61
71128;SHT30;59249;59.736;30.568;2022-08-03T07:33:25;23.20;64.94
71128;SHT30;59249;59.736;30.568;2022-08-03T07:35:54;23.28;64.41
71128;SHT30;59249;59.736;30.568;2022-08-03T07:38:26;23.29;64.52
71128;SHT30;59249;59.736;30.568;2022-08-03T07:40:57;23.34;63.62
71128;SHT30;59249;59.736;30.568;2022-08-03T07:43:26;23.46;63.57
71128;SHT30;59249;59.736;30.568;2022-08-03T07:45:55;23.48;61.26
71128;SHT30;59249;59.736;30.568;2022-08-03T07:48:24;23.52;60.47
71128;SHT30;59249;59.736;30.568;2022-08-03T07:50:53;23.43;58.91
71128;SHT30;59249;59.736;30.568;2022-08-03T07:53:21;23.43;58.60
71128;SHT30;59249;59.736;30.568;2022-08-03T07:55:50;23.43;59.17
71128;SHT30;59249;59.736;30.568;2022-08-03T07:58:20;23.56;58.84
71128;SHT30;59249;59.736;30.568;2022-08-03T08:00:50;23.58;58.80
71128;SHT30;59249;59.736;30.568;2022-08-03T08:03:20;23.61;57.57
71128;SHT30;59249;59.736;30.568;2022-08-03T08:05:49;23.66;58.32
71128;SHT30;59249;59.736;30.568;2022-08-03T08:08:18;23.73;58.25
71128;SHT30;59249;59.736;30.568;2022-08-03T08:10:47;23.69;57.57
71128;SHT30;59249;59.736;30.568;2022-08-03T08:13:26;23.71;57.15
71128;SHT30;59249;59.736;30.568;2022-08-03T08:15:55;23.71;57.97
71128;SHT30;59249;59.736;30.568;2022-08-03T08:18:24;23.82;57.81
71128;SHT30;59249;59.736;30.568;2022-08-03T08:20:56;23.99;58.26
71128;SHT30;59249;59.736;30.568;2022-08-03T08:23:28;24.08;58.42
71128;SHT30;59249;59.736;30.568;2022-08-03T08:26:10;24.20;57.93
71128;SHT30;59249;59.736;30.568;2022-08-03T08:28:40;24.32;57.26
71128;SHT30;59249;59.736;30.568;2022-08-03T08:31:09;24.43;56.64
71128;SHT30;59249;59.736;30.568;2022-08-03T08:33:37;24.41;56.32
71128;SHT30;59249;59.736;30.568;2022-08-03T08:36:26;24.50;56.63
71128;SHT30;59249;59.736;30.568;2022-08-03T08:38:55;24.58;56.35
71128;SHT30;59249;59.736;30.568;2022-08-03T08:41:24;24.59;56.05
71128;SHT30;59249;59.736;30.568;2022-08-03T08:44:00;24.57;56.39
71128;SHT30;59249;59.736;30.568;2022-08-03T08:46:32;24.48;56.33
71128;SHT30;59249;59.736;30.568;2022-08-03T08:49:01;24.60;56.25
71128;SHT30;59249;59.736;30.568;2022-08-03T08:51:33;24.78;56.37
71128;SHT30;59249;59.736;30.568;2022-08-03T08:54:24;24.73;56.48
71128;SHT30;59249;59.736;30.568;2022-08-03T08:57:01;24.78;55.93
71128;SHT30;59249;59.736;30.568;2022-08-03T08:59:54;24.80;55.70
71128;SHT30;59249;59.736;30.568;2022-08-03T09:02:24;24.86;56.06
71128;SHT30;59249;59.736;30.568;2022-08-03T09:04:57;24.93;55.88
71128;SHT30;59249;59.736;30.568;2022-08-03T09:07:34;24.96;56.17
71128;SHT30;59249;59.736;30.568;2022-08-03T09:10:05;25.01;56.02
71128;SHT30;59249;59.736;30.568;2022-08-03T09:12:42;24.90;55.39
71128;SHT30;59249;59.736;30.568;2022-08-03T09:15:24;24.80;55.96
71128;SHT30;59249;59.736;30.568;2022-08-03T09:17:59;24.68;56.78
71128;SHT30;59249;59.736;30.568;2022-08-03T09:20:31;24.45;57.37
71128;SHT30;59249;59.736;30.568;2022-08-03T09:23:03;24.41;57.68
71128;SHT30;59249;59.736;30.568;2022-08-03T09:25:58;24.32;58.70
71128;SHT30;59249;59.736;30.568;2022-08-03T09:28:34;24.28;59.21
71128;SHT30;59249;59.736;30.568;2022-08-03T09:31:32;24.31;58.13
71128;SHT30;59249;59.736;30.568;2022-08-03T09:34:06;24.32;58.42
71128;SHT30;59249;59.736;30.568;2022-08-03T09:36:41;24.47;58.36
71128;SHT30;59249;59.736;30.568;2022-08-03T09:39:12;24.55;58.51
71128;SHT30;59249;59.736;30.568;2022-08-03T09:41:45;24.55;58.38
71128;SHT30;59249;59.736;30.568;2022-08-03T09:44:15;24.58;58.24
71128;SHT30;59249;59.736;30.568;2022-08-03T09:46:55;24.45;58.03
71128;SHT30;59249;59.736;30.568;2022-08-03T09:49:24;24.50;57.87
71128;SHT30;59249;59.736;30.568;2022-08-03T09:51:53;24.49;58.15
71128;SHT30;59249;59.736;30.568;2022-08-03T09:54:42;24.46;58.34
71128;SHT30;59249;59.736;30.568;2022-08-03T09:57:21;24.37;57.85
71128;SHT30;59249;59.736;30.568;2022-08-03T09:59:52;24.41;58.45
71128;SHT30;59249;59.736;30.568;2022-08-03T10:02:41;24.60;58.36
71128;SHT30;59249;59.736;30.568;2022-08-03T10:05:12;24.79;57.79
71128;SHT30;59249;59.736;30.568;2022-08-03T10:07:48;24.89;57.28
71128;SHT30;59249;59.736;30.568;2022-08-03T10:10:20;25.01;56.83
71128;SHT30;59249;59.736;30.568;2022-08-03T10:12:59;24.95;56.49
71128;SHT30;59249;59.736;30.568;2022-08-03T10:15:29;25.06;56.28
71128;SHT30;59249;59.736;30.568;2022-08-03T10:18:20;25.18;56.83
71128;SHT30;59249;59.736;30.568;2022-08-03T10:20:52;25.41;57.08
71128;SHT30;59249;59.736;30.568;2022-08-03T10:23:23;25.73;56.96
71128;SHT30;59249;59.736;30.568;2022-08-03T10:26:01;25.90;56.86
71128;SHT30;59249;59.736;30.568;2022-08-03T10:28:35;25.97;55.73
71128;SHT30;59249;59.736;30.568;2022-08-03T10:31:13;25.90;55.63
71128;SHT30;59249;59.736;30.568;2022-08-03T10:33:48;25.96;56.10
71128;SHT30;59249;59.736;30.568;2022-08-03T10:36:23;25.93;56.81
71128;SHT30;59249;59.736;30.568;2022-08-03T10:38:55;25.92;56.87
71128;SHT30;59249;59.736;30.568;2022-08-03T10:41:31;25.81;56.32
71128;SHT30;59249;59.736;30.568;2022-08-03T10:44:05;25.84;56.28
71128;SHT30;59249;59.736;30.568;2022-08-03T10:46:38;25.85;56.31
71128;SHT30;59249;59.736;30.568;2022-08-03T10:49:14;25.76;56.44
71128;SHT30;59249;59.736;30.568;2022-08-03T10:52:00;25.80;56.81
71128;SHT30;59249;59.736;30.568;2022-08-03T10:54:42;25.99;56.60
71128;SHT30;59249;59.736;30.568;2022-08-03T10:57:46;26.11;56.03
71128;SHT30;59249;59.736;30.568;2022-08-03T11:00:27;26.38;55.68
71128;SHT30;59249;59.736;30.568;2022-08-03T11:03:15;26.48;54.69
71128;SHT30;59249;59.736;30.568;2022-08-03T11:05:47;26.58;54.65
71128;SHT30;59249;59.736;30.568;2022-08-03T11:08:29;26.66;54.73
71128;SHT30;59249;59.736;30.568;2022-08-03T11:11:02;26.70;54.95
71128;SHT30;59249;59.736;30.568;2022-08-03T11:13:59;26.64;54.55
71128;SHT30;59249;59.736;30.568;2022-08-03T11:16:31;26.62;54.27
71128;SHT30;59249;59.736;30.568;2022-08-03T11:19:05;26.79;54.72
71128;SHT30;59249;59.736;30.568;2022-08-03T11:21:56;26.67;54.87
71128;SHT30;59249;59.736;30.568;2022-08-03T11:24:57;26.74;54.98
71128;SHT30;59249;59.736;30.568;2022-08-03T11:27:31;26.60;54.94
71128;SHT30;59249;59.736;30.568;2022-08-03T11:30:08;26.65;54.67
71128;SHT30;59249;59.736;30.568;2022-08-03T11:32:57;26.79;54.80
71128;SHT30;59249;59.736;30.568;2022-08-03T11:35:28;26.85;55.11
71128;SHT30;59249;59.736;30.568;2022-08-03T11:38:08;26.86;54.90
71128;SHT30;59249;59.736;30.568;2022-08-03T11:40:43;26.88;54.68
71128;SHT30;59249;59.736;30.568;2022-08-03T11:43:44;26.67;54.79
71128;SHT30;59249;59.736;30.568;2022-08-03T11:46:14;26.69;55.21
71128;SHT30;59249;59.736;30.568;2022-08-03T11:49:03;26.44;55.30
71128;SHT30;59249;59.736;30.568;2022-08-03T11:51:37;26.40;55.41
71128;SHT30;59249;59.736;30.568;2022-08-03T11:54:08;26.41;55.06
71128;SHT30;59249;59.736;30.568;2022-08-03T11:56:47;26.45;55.86
71128;SHT30;59249;59.736;30.568;2022-08-03T11:59:16;26.46;55.50
71128;SHT30;59249;59.736;30.568;2022-08-03T12:01:49;26.35;56.11
71128;SHT30;59249;59.736;30.568;2022-08-03T12:04:18;26.13;55.99
71128;SHT30;59249;59.736;30.568;2022-08-03T12:07:00;26.00;56.51
71128;SHT30;59249;59.736;30.568;2022-08-03T12:09:31;26.04;57.15
71128;SHT30;59249;59.736;30.568;2022-08-03T12:12:03;26.41;57.06
71128;SHT30;59249;59.736;30.568;2022-08-03T12:14:31;26.70;56.56
71128;SHT30;59249;59.736;30.568;2022-08-03T12:17:18;26.98;55.88
71128;SHT30;59249;59.736;30.568;2022-08-03T12:19:47;26.99;55.34
71128;SHT30;59249;59.736;30.568;2022-08-03T12:22:30;26.86;55.47
71128;SHT30;59249;59.736;30.568;2022-08-03T12:25:04;26.99;55.40
71128;SHT30;59249;59.736;30.568;2022-08-03T12:27:34;27.05;55.60
71128;SHT30;59249;59.736;30.568;2022-08-03T12:30:04;27.17;55.41
71128;SHT30;59249;59.736;30.568;2022-08-03T12:32:36;27.20;55.61
71128;SHT30;59249;59.736;30.568;2022-08-03T12:35:07;27.16;55.63
71128;SHT30;59249;59.736;30.568;2022-08-03T12:37:36;27.13;55.55
71128;SHT30;59249;59.736;30.568;2022-08-03T12:40:08;27.33;55.10
71128;SHT30;59249;59.736;30.568;2022-08-03T12:42:46;27.41;55.01
71128;SHT30;59249;59.736;30.568;2022-08-03T12:45:22;27.25;55.30
71128;SHT30;59249;59.736;30.568;2022-08-03T12:47:54;27.14;55.00
71128;SHT30;59249;59.736;30.568;2022-08-03T12:50:26;27.10;55.39
71128;SHT30;59249;59.736;30.568;2022-08-03T12:52:56;27.14;55.54
71128;SHT30;59249;59.736;30.568;2022-08-03T12:55:26;27.09;55.45
71128;SHT30;59249;59.736;30.568;2022-08-03T12:58:29;27.20;54.90
71128;SHT30;59249;59.736;30.568;2022-08-03T13:01:03;27.38;54.17
71128;SHT30;59249;59.736;30.568;2022-08-03T13:03:41;27.50;53.33
71128;SHT30;59249;59.736;30.568;2022-08-03T13:06:24;27.58;53.61
71128;SHT30;59249;59.736;30.568;2022-08-03T13:09:03;27.53;53.81
71128;SHT30;59249;59.736;30.568;2022-08-03T13:11:34;27.61;53.94
71128;SHT30;59249;59.736;30.568;2022-08-03T13:14:23;27.55;52.35
71128;SHT30;59249;59.736;30.568;2022-08-03T13:16:52;27.37;52.53
71128;SHT30;59249;59.736;30.568;2022-08-03T13:19:22;27.22;52.80
71128;SHT30;59249;59.736;30.568;2022-08-03T13:21:56;27.37;52.85
71128;SHT30;59249;59.736;30.568;2022-08-03T13:24:32;27.30;53.32
71128;SHT30;59249;59.736;30.568;2022-08-03T13:27:02;27.39;53.06
71128;SHT30;59249;59.736;30.568;2022-08-03T13:29:53;27.40;52.95
71128;SHT30;59249;59.736;30.568;2022-08-03T13:32:23;27.42;52.43
71128;SHT30;59249;59.736;30.568;2022-08-03T13:34:52;27.37;52.71
71128;SHT30;59249;59.736;30.568;2022-08-03T13:37:21;27.37;53.27
71128;SHT30;59249;59.736;30.568;2022-08-03T13:40:04;27.39;53.37
71128;SHT30;59249;59.736;30.568;2022-08-03T13:42:35;27.49;53.09
71128;SHT30;59249;59.736;30.568;2022-08-03T13:45:06;27.43;52.76
71128;SHT30;59249;59.736;30.568;2022-08-03T13:47:36;27.57;52.91
71128;SHT30;59249;59.736;30.568;2022-08-03T13:50:05;27.64;52.82
71128;SHT30;59249;59.736;30.568;2022-08-03T13:52:35;27.62;52.41
71128;SHT30;59249;59.736;30.568;2022-08-03T13:55:08;27.80;52.54
71128;SHT30;59249;59.736;30.568;2022-08-03T13:57:39;27.88;52.55
71128;SHT30;59249;59.736;30.568;2022-08-03T14:00:28;27.77;52.28
71128;SHT30;59249;59.736;30.568;2022-08-03T14:03:00;27.74;52.62
71128;SHT30;59249;59.736;30.568;2022-08-03T14:05:40;27.77;52.22
71128;SHT30;59249;59.736;30.568;2022-08-03T14:08:11;27.97;52.45
71128;SHT30;59249;59.736;30.568;2022-08-03T14:10:42;27.97;52.37
71128;SHT30;59249;59.736;30.568;2022-08-03T14:13:13;28.00;51.86
71128;SHT30;59249;59.736;30.568;2022-08-03T14:15:45;27.94;52.11
71128;SHT30;59249;59.736;30.568;2022-08-03T14:18:18;27.98;51.98
71128;SHT30;59249;59.736;30.568;2022-08-03T14:21:00;28.06;51.96
71128;SHT30;59249;59.736;30.568;2022-08-03T14:23:35;28.07;52.06
71128;SHT30;59249;59.736;30.568;2022-08-03T14:26:06;28.08;52.18
71128;SHT30;59249;59.736;30.568;2022-08-03T14:28:36;28.16;51.89
71128;SHT30;59249;59.736;30.568;2022-08-03T14:31:05;28.37;52.10
71128;SHT30;59249;59.736;30.568;2022-08-03T14:33:54;28.36;51.34
71128;SHT30;59249;59.736;30.568;2022-08-03T14:36:23;28.70;50.40
71128;SHT30;59249;59.736;30.568;2022-08-03T14:38:52;28.93;50.08
71128;SHT30;59249;59.736;30.568;2022-08-03T14:41:27;29.08;50.11
71128;SHT30;59249;59.736;30.568;2022-08-03T14:43:57;29.38;49.44
71128;SHT30;59249;59.736;30.568;2022-08-03T14:46:29;29.61;49.33
71128;SHT30;59249;59.736;30.568;2022-08-03T14:48:58;29.55;49.43
71128;SHT30;59249;59.736;30.568;2022-08-03T14:51:47;29.77;49.53
71128;SHT30;59249;59.736;30.568;2022-08-03T14:54:20;30.02;48.82
71128;SHT30;59249;59.736;30.568;2022-08-03T14:56:49;30.14;47.94
71128;SHT30;59249;59.736;30.568;2022-08-03T14:59:19;30.36;47.90
71128;SHT30;59249;59.736;30.568;2022-08-03T15:01:49;30.46;47.53
71128;SHT30;59249;59.736;30.568;2022-08-03T15:04:33;30.53;46.51
71128;SHT30;59249;59.736;30.568;2022-08-03T15:07:02;30.33;46.18
71128;SHT30;59249;59.736;30.568;2022-08-03T15:09:31;30.17;46.22
71128;SHT30;59249;59.736;30.568;2022-08-03T15:12:00;30.11;46.01
71128;SHT30;59249;59.736;30.568;2022-08-03T15:14:31;30.15;46.30
71128;SHT30;59249;59.736;30.568;2022-08-03T15:17:04;30.16;46.45
71128;SHT30;59249;59.736;30.568;2022-08-03T15:19:33;30.20;46.02
71128;SHT30;59249;59.736;30.568;2022-08-03T15:22:22;30.13;45.83
71128;SHT30;59249;59.736;30.568;2022-08-03T15:25:02;30.01;46.44
71128;SHT30;59249;59.736;30.568;2022-08-03T15:27:51;29.77;46.81
71128;SHT30;59249;59.736;30.568;2022-08-03T15:30:32;29.93;46.55
71128;SHT30;59249;59.736;30.568;2022-08-03T15:33:03;30.15;46.28
71128;SHT30;59249;59.736;30.568;2022-08-03T15:35:33;30.28;46.02
71128;SHT30;59249;59.736;30.568;2022-08-03T15:38:02;30.36;45.93
71128;SHT30;59249;59.736;30.568;2022-08-03T15:40:36;30.69;46.29
71128;SHT30;59249;59.736;30.568;2022-08-03T15:43:06;30.87;45.32
71128;SHT30;59249;59.736;30.568;2022-08-03T15:45:36;30.79;44.75
71128;SHT30;59249;59.736;30.568;2022-08-03T15:48:08;30.86;44.95
71128;SHT30;59249;59.736;30.568;2022-08-03T15:50:37;31.00;44.65
71128;SHT30;59249;59.736;30.568;2022-08-03T15:53:06;31.30;44.76
71128;SHT30;59249;59.736;30.568;2022-08-03T15:55:34;31.48;43.73
71128;SHT30;59249;59.736;30.568;2022-08-03T15:58:03;31.25;44.17
71128;SHT30;59249;59.736;30.568;2022-08-03T16:00:53;31.49;43.60